sensor_id;sensor_type;location;lat;lon;timestamp;temperature;humidity
73576;DHT22;61859;49.204;8.140;2022-07-29T00:01:16;21.10;55.40
73576;DHT22;61859;49.204;8.140;2022-07-29T00:03:41;21.10;55.50
73576;DHT22;61859;49.204;8.140;2022-07-29T00:06:07;21.00;55.70
73576;DHT22;61859;49.204;8.140;2022-07-29T00:08:32;21.00;55.80
73576;DHT22;61859;49.204;8.140;2022-07-29T00:10:58;21.00;56.20
73576;DHT22;61859;49.204;8.140;2022-07-29T00:13:24;20.90;57.50
73576;DHT22;61859;49.204;8.140;2022-07-29T00:15:49;20.90;57.20
73576;DHT22;61859;49.204;8.140;2022-07-29T00:18:15;20.80;57.10
73576;DHT22;61859;49.204;8.140;2022-07-29T00:20:40;20.80;57.30
73576;DHT22;61859;49.204;8.140;2022-07-29T00:23:06;20.80;57.20
73576;DHT22;61859;49.204;8.140;2022-07-29T00:25:31;20.70;57.20
73576;DHT22;61859;49.204;8.140;2022-07-29T00:27:57;20.60;57.40
73576;DHT22;61859;49.204;8.140;2022-07-29T00:30:23;20.60;57.60
73576;DHT22;61859;49.204;8.140;2022-07-29T00:32:48;20.50;58.20
73576;DHT22;61859;49.204;8.140;2022-07-29T00:35:14;20.50;57.80
73576;DHT22;61859;49.204;8.140;2022-07-29T00:37:58;20.50;57.70
73576;DHT22;61859;49.204;8.140;2022-07-29T00:40:23;20.50;57.50
73576;DHT22;61859;49.204;8.140;2022-07-29T00:42:50;20.40;57.50
73576;DHT22;61859;49.204;8.140;2022-07-29T00:45:16;20.50;58.00
73576;DHT22;61859;49.204;8.140;2022-07-29T00:47:43;20.40;58.10
73576;DHT22;61859;49.204;8.140;2022-07-29T00:50:11;20.40;58.30
73576;DHT22;61859;49.204;8.140;2022-07-29T00:52:38;20.20;58.70
73576;DHT22;61859;49.204;8.140;2022-07-29T00:55:05;20.30;58.50
73576;DHT22;61859;49.204;8.140;2022-07-29T00:57:32;20.30;59.00
73576;DHT22;61859;49.204;8.140;2022-07-29T00:59:58;20.20;59.20
73576;DHT22;61859;49.204;8.140;2022-07-29T01:02:23;20.30;59.40
73576;DHT22;61859;49.204;8.140;2022-07-29T01:04:49;20.20;59.60
73576;DHT22;61859;49.204;8.140;2022-07-29T01:07:15;20.10;59.90
73576;DHT22;61859;49.204;8.140;2022-07-29T01:09:42;20.10;60.40
73576;DHT22;61859;49.204;8.140;2022-07-29T01:12:08;20.10;60.00
73576;DHT22;61859;49.204;8.140;2022-07-29T01:14:35;20.10;59.50
73576;DHT22;61859;49.204;8.140;2022-07-29T01:17:27;20.10;59.00
73576;DHT22;61859;49.204;8.140;2022-07-29T01:25:45;20.30;58.60
73576;DHT22;61859;49.204;8.140;2022-07-29T01:28:39;20.20;58.50
73576;DHT22;61859;49.204;8.140;2022-07-29T01:31:08;20.00;58.60
73576;DHT22;61859;49.204;8.140;2022-07-29T01:33:42;20.10;58.40
73576;DHT22;61859;49.204;8.140;2022-07-29T01:36:18;20.10;57.80
73576;DHT22;61859;49.204;8.140;2022-07-29T01:38:57;20.10;57.60
73576;DHT22;61859;49.204;8.140;2022-07-29T01:41:27;20.00;58.00
73576;DHT22;61859;49.204;8.140;2022-07-29T01:43:57;20.00;58.10
73576;DHT22;61859;49.204;8.140;2022-07-29T01:46:29;20.00;57.90
73576;DHT22;61859;49.204;8.140;2022-07-29T01:49:06;20.00;58.20
73576;DHT22;61859;49.204;8.140;2022-07-29T01:51:43;20.10;57.50
73576;DHT22;61859;49.204;8.140;2022-07-29T01:54:34;20.00;57.80
73576;DHT22;61859;49.204;8.140;2022-07-29T01:57:01;20.00;58.30
73576;DHT22;61859;49.204;8.140;2022-07-29T01:59:30;19.90;58.60
73576;DHT22;61859;49.204;8.140;2022-07-29T02:01:57;19.90;58.60
73576;DHT22;61859;49.204;8.140;2022-07-29T02:04:25;19.80;58.60
73576;DHT22;61859;49.204;8.140;2022-07-29T02:06:52;19.70;58.80
73576;DHT22;61859;49.204;8.140;2022-07-29T02:09:21;19.70;59.00
73576;DHT22;61859;49.204;8.140;2022-07-29T02:11:53;19.70;59.10
73576;DHT22;61859;49.204;8.140;2022-07-29T02:14:20;19.60;59.40
73576;DHT22;61859;49.204;8.140;2022-07-29T02:16:48;19.50;59.80
73576;DHT22;61859;49.204;8.140;2022-07-29T02:19:17;19.50;60.10
73576;DHT22;61859;49.204;8.140;2022-07-29T02:21:44;19.40;60.00
73576;DHT22;61859;49.204;8.140;2022-07-29T02:24:11;19.40;59.90
73576;DHT22;61859;49.204;8.140;2022-07-29T02:26:39;19.30;59.70
73576;DHT22;61859;49.204;8.140;2022-07-29T02:29:06;19.30;60.20
73576;DHT22;61859;49.204;8.140;2022-07-29T02:31:34;19.30;60.50
73576;DHT22;61859;49.204;8.140;2022-07-29T02:34:02;19.20;60.60
73576;DHT22;61859;49.204;8.140;2022-07-29T02:36:29;19.20;61.00
73576;DHT22;61859;49.204;8.140;2022-07-29T02:38:56;19.20;61.00
73576;DHT22;61859;49.204;8.140;2022-07-29T02:41:52;19.10;61.20
73576;DHT22;61859;49.204;8.140;2022-07-29T02:44:23;19.00;61.30
73576;DHT22;61859;49.204;8.140;2022-07-29T02:46:52;19.00;61.60
73576;DHT22;61859;49.204;8.140;2022-07-29T02:49:34;18.90;61.70
73576;DHT22;61859;49.204;8.140;2022-07-29T02:52:04;19.00;61.40
73576;DHT22;61859;49.204;8.140;2022-07-29T02:54:43;19.00;61.40
73576;DHT22;61859;49.204;8.140;2022-07-29T02:57:28;19.00;61.60
73576;DHT22;61859;49.204;8.140;2022-07-29T02:59:57;19.00;61.90
73576;DHT22;61859;49.204;8.140;2022-07-29T03:02:25;19.00;61.80
73576;DHT22;61859;49.204;8.140;2022-07-29T03:04:52;18.90;62.00
73576;DHT22;61859;49.204;8.140;2022-07-29T03:07:20;18.80;62.20
73576;DHT22;61859;49.204;8.140;2022-07-29T03:09:46;18.80;63.10
73576;DHT22;61859;49.204;8.140;2022-07-29T03:12:13;18.80;63.40
73576;DHT22;61859;49.204;8.140;2022-07-29T03:14:39;18.80;62.70
73576;DHT22;61859;49.204;8.140;2022-07-29T03:17:05;18.80;62.60
73576;DHT22;61859;49.204;8.140;2022-07-29T03:19:31;18.70;62.70
73576;DHT22;61859;49.204;8.140;2022-07-29T03:21:58;18.70;62.10
73576;DHT22;61859;49.204;8.140;2022-07-29T03:24:29;18.70;62.60
73576;DHT22;61859;49.204;8.140;2022-07-29T03:26:56;18.70;62.30
73576;DHT22;61859;49.204;8.140;2022-07-29T03:29:22;18.70;62.50
73576;DHT22;61859;49.204;8.140;2022-07-29T03:31:47;18.70;62.50
73576;DHT22;61859;49.204;8.140;2022-07-29T03:34:13;18.70;63.00
73576;DHT22;61859;49.204;8.140;2022-07-29T03:36:38;18.60;63.30
73576;DHT22;61859;49.204;8.140;2022-07-29T03:39:04;18.70;63.20
73576;DHT22;61859;49.204;8.140;2022-07-29T03:41:31;18.60;63.70
73576;DHT22;61859;49.204;8.140;2022-07-29T03:43:58;18.50;63.60
73576;DHT22;61859;49.204;8.140;2022-07-29T03:46:26;18.50;63.90
73576;DHT22;61859;49.204;8.140;2022-07-29T03:48:58;18.40;64.30
73576;DHT22;61859;49.204;8.140;2022-07-29T03:51:25;18.40;64.30
73576;DHT22;61859;49.204;8.140;2022-07-29T03:53:52;18.30;64.50
73576;DHT22;61859;49.204;8.140;2022-07-29T03:56:20;18.30;64.60
73576;DHT22;61859;49.204;8.140;2022-07-29T03:58:47;18.30;64.70
73576;DHT22;61859;49.204;8.140;2022-07-29T04:01:14;18.20;65.30
73576;DHT22;61859;49.204;8.140;2022-07-29T04:03:40;18.10;65.90
73576;DHT22;61859;49.204;8.140;2022-07-29T04:06:06;18.10;66.40
73576;DHT22;61859;49.204;8.140;2022-07-29T04:08:33;18.10;66.50
73576;DHT22;61859;49.204;8.140;2022-07-29T04:11:00;18.00;66.90
73576;DHT22;61859;49.204;8.140;2022-07-29T04:13:26;17.90;67.10
73576;DHT22;61859;49.204;8.140;2022-07-29T04:15:51;18.10;67.10
73576;DHT22;61859;49.204;8.140;2022-07-29T04:18:17;18.00;67.10
73576;DHT22;61859;49.204;8.140;2022-07-29T04:20:42;18.10;67.40
73576;DHT22;61859;49.204;8.140;2022-07-29T04:23:08;18.00;67.80
73576;DHT22;61859;49.204;8.140;2022-07-29T04:25:37;17.90;67.50
73576;DHT22;61859;49.204;8.140;2022-07-29T04:28:03;17.90;67.90
73576;DHT22;61859;49.204;8.140;2022-07-29T04:30:30;17.90;68.10
73576;DHT22;61859;49.204;8.140;2022-07-29T04:32:56;18.00;68.70
73576;DHT22;61859;49.204;8.140;2022-07-29T04:35:22;18.00;68.80
73576;DHT22;61859;49.204;8.140;2022-07-29T04:37:47;18.10;69.00
73576;DHT22;61859;49.204;8.140;2022-07-29T04:40:14;18.00;69.10
73576;DHT22;61859;49.204;8.140;2022-07-29T04:42:39;18.10;68.20
73576;DHT22;61859;49.204;8.140;2022-07-29T04:45:05;18.20;68.00
73576;DHT22;61859;49.204;8.140;2022-07-29T04:47:31;18.30;68.00
73576;DHT22;61859;49.204;8.140;2022-07-29T04:49:57;18.30;68.20
73576;DHT22;61859;49.204;8.140;2022-07-29T04:52:22;18.50;68.20
73576;DHT22;61859;49.204;8.140;2022-07-29T04:54:48;18.50;68.30
73576;DHT22;61859;49.204;8.140;2022-07-29T04:57:14;18.60;68.50
73576;DHT22;61859;49.204;8.140;2022-07-29T04:59:40;18.60;68.50
73576;DHT22;61859;49.204;8.140;2022-07-29T05:02:05;18.80;68.50
73576;DHT22;61859;49.204;8.140;2022-07-29T05:04:31;18.80;68.20
73576;DHT22;61859;49.204;8.140;2022-07-29T05:06:56;18.90;68.50
73576;DHT22;61859;49.204;8.140;2022-07-29T05:09:22;19.00;68.40
73576;DHT22;61859;49.204;8.140;2022-07-29T05:11:48;19.10;67.70
73576;DHT22;61859;49.204;8.140;2022-07-29T05:14:14;19.10;67.60
73576;DHT22;61859;49.204;8.140;2022-07-29T05:16:40;19.30;67.70
73576;DHT22;61859;49.204;8.140;2022-07-29T05:19:05;19.30;67.60
73576;DHT22;61859;49.204;8.140;2022-07-29T05:21:31;19.40;67.60
73576;DHT22;61859;49.204;8.140;2022-07-29T05:23:57;19.50;67.70
73576;DHT22;61859;49.204;8.140;2022-07-29T05:26:22;19.60;66.80
73576;DHT22;61859;49.204;8.140;2022-07-29T05:28:48;19.70;66.80
73576;DHT22;61859;49.204;8.140;2022-07-29T05:31:14;19.80;66.60
73576;DHT22;61859;49.204;8.140;2022-07-29T05:33:40;19.90;66.40
73576;DHT22;61859;49.204;8.140;2022-07-29T05:36:06;19.90;66.30
73576;DHT22;61859;49.204;8.140;2022-07-29T05:38:33;20.00;66.30
73576;DHT22;61859;49.204;8.140;2022-07-29T05:40:59;20.10;66.10
73576;DHT22;61859;49.204;8.140;2022-07-29T05:43:28;20.20;65.00
73576;DHT22;61859;49.204;8.140;2022-07-29T05:45:54;20.20;65.20
73576;DHT22;61859;49.204;8.140;2022-07-29T05:48:19;20.40;64.80
73576;DHT22;61859;49.204;8.140;2022-07-29T05:50:45;20.40;65.10
73576;DHT22;61859;49.204;8.140;2022-07-29T05:53:10;20.50;65.00
73576;DHT22;61859;49.204;8.140;2022-07-29T05:55:36;20.60;64.80
73576;DHT22;61859;49.204;8.140;2022-07-29T05:58:02;20.70;64.50
73576;DHT22;61859;49.204;8.140;2022-07-29T06:00:27;20.80;63.60
73576;DHT22;61859;49.204;8.140;2022-07-29T06:02:53;20.80;63.80
73576;DHT22;61859;49.204;8.140;2022-07-29T06:05:19;21.00;62.90
73576;DHT22;61859;49.204;8.140;2022-07-29T06:07:44;21.30;62.90
73576;DHT22;61859;49.204;8.140;2022-07-29T06:10:10;21.40;62.10
73576;DHT22;61859;49.204;8.140;2022-07-29T06:12:35;21.60;60.40
73576;DHT22;61859;49.204;8.140;2022-07-29T06:15:01;21.70;60.10
73576;DHT22;61859;49.204;8.140;2022-07-29T06:17:27;21.90;59.90
73576;DHT22;61859;49.204;8.140;2022-07-29T06:19:53;22.00;59.50
73576;DHT22;61859;49.204;8.140;2022-07-29T06:22:18;22.10;59.80
73576;DHT22;61859;49.204;8.140;2022-07-29T06:24:44;22.20;60.10
73576;DHT22;61859;49.204;8.140;2022-07-29T06:27:12;22.30;60.50
73576;DHT22;61859;49.204;8.140;2022-07-29T06:29:38;22.40;60.00
73576;DHT22;61859;49.204;8.140;2022-07-29T06:32:04;22.40;59.90
73576;DHT22;61859;49.204;8.140;2022-07-29T06:34:29;22.50;59.70
73576;DHT22;61859;49.204;8.140;2022-07-29T06:36:55;22.50;58.30
73576;DHT22;61859;49.204;8.140;2022-07-29T06:39:21;22.70;57.80
73576;DHT22;61859;49.204;8.140;2022-07-29T06:41:47;22.80;57.40
73576;DHT22;61859;49.204;8.140;2022-07-29T06:44:17;22.70;57.60
73576;DHT22;61859;49.204;8.140;2022-07-29T06:46:43;22.90;57.50
73576;DHT22;61859;49.204;8.140;2022-07-29T06:49:09;23.00;58.20
73576;DHT22;61859;49.204;8.140;2022-07-29T06:51:35;22.90;57.80
73576;DHT22;61859;49.204;8.140;2022-07-29T06:54:01;23.00;57.30
73576;DHT22;61859;49.204;8.140;2022-07-29T06:56:31;23.10;58.00
73576;DHT22;61859;49.204;8.140;2022-07-29T06:58:57;23.20;57.50
73576;DHT22;61859;49.204;8.140;2022-07-29T07:01:23;23.20;56.30
73576;DHT22;61859;49.204;8.140;2022-07-29T07:03:48;23.20;56.90
73576;DHT22;61859;49.204;8.140;2022-07-29T07:06:14;23.30;57.00
73576;DHT22;61859;49.204;8.140;2022-07-29T07:08:39;23.50;56.90
73576;DHT22;61859;49.204;8.140;2022-07-29T07:11:05;23.70;57.10
73576;DHT22;61859;49.204;8.140;2022-07-29T07:13:32;23.80;55.60
73576;DHT22;61859;49.204;8.140;2022-07-29T07:16:00;24.00;55.90
73576;DHT22;61859;49.204;8.140;2022-07-29T07:18:26;24.30;55.20
73576;DHT22;61859;49.204;8.140;2022-07-29T07:20:51;24.50;54.60
73576;DHT22;61859;49.204;8.140;2022-07-29T07:23:17;24.60;54.70
73576;DHT22;61859;49.204;8.140;2022-07-29T07:25:42;24.60;54.10
73576;DHT22;61859;49.204;8.140;2022-07-29T07:28:08;24.70;54.10
73576;DHT22;61859;49.204;8.140;2022-07-29T07:30:34;24.90;53.70
73576;DHT22;61859;49.204;8.140;2022-07-29T07:33:00;25.10;53.90
73576;DHT22;61859;49.204;8.140;2022-07-29T07:35:25;25.30;52.80
73576;DHT22;61859;49.204;8.140;2022-07-29T07:37:53;25.40;51.70
73576;DHT22;61859;49.204;8.140;2022-07-29T07:40:19;25.50;52.80
73576;DHT22;61859;49.204;8.140;2022-07-29T07:42:44;25.60;51.90
73576;DHT22;61859;49.204;8.140;2022-07-29T07:45:11;25.80;51.10
73576;DHT22;61859;49.204;8.140;2022-07-29T07:47:37;26.10;51.50
73576;DHT22;61859;49.204;8.140;2022-07-29T07:50:08;26.20;51.20
73576;DHT22;61859;49.204;8.140;2022-07-29T07:52:34;26.50;50.80
73576;DHT22;61859;49.204;8.140;2022-07-29T07:55:00;26.70;50.80
73576;DHT22;61859;49.204;8.140;2022-07-29T07:57:26;26.80;49.70
73576;DHT22;61859;49.204;8.140;2022-07-29T07:59:52;26.70;50.70
73576;DHT22;61859;49.204;8.140;2022-07-29T08:02:17;26.60;50.30
73576;DHT22;61859;49.204;8.140;2022-07-29T08:04:43;26.40;51.60
73576;DHT22;61859;49.204;8.140;2022-07-29T08:07:08;26.30;51.70
73576;DHT22;61859;49.204;8.140;2022-07-29T08:09:35;26.50;52.10
73576;DHT22;61859;49.204;8.140;2022-07-29T08:12:01;26.90;50.20
73576;DHT22;61859;49.204;8.140;2022-07-29T08:14:31;27.10;49.50
73576;DHT22;61859;49.204;8.140;2022-07-29T08:16:56;27.20;48.50
73576;DHT22;61859;49.204;8.140;2022-07-29T08:19:22;26.90;49.90
73576;DHT22;61859;49.204;8.140;2022-07-29T08:21:47;26.90;50.00
73576;DHT22;61859;49.204;8.140;2022-07-29T08:24:13;27.20;49.10
73576;DHT22;61859;49.204;8.140;2022-07-29T08:26:58;27.70;50.40
73576;DHT22;61859;49.204;8.140;2022-07-29T08:29:23;28.10;48.20
73576;DHT22;61859;49.204;8.140;2022-07-29T08:31:49;27.90;48.00
73576;DHT22;61859;49.204;8.140;2022-07-29T08:34:14;27.50;47.30
73576;DHT22;61859;49.204;8.140;2022-07-29T08:36:40;27.00;48.00
73576;DHT22;61859;49.204;8.140;2022-07-29T08:39:05;26.50;48.80
73576;DHT22;61859;49.204;8.140;2022-07-29T08:41:31;26.30;48.80
73576;DHT22;61859;49.204;8.140;2022-07-29T08:43:57;26.20;50.50
73576;DHT22;61859;49.204;8.140;2022-07-29T08:46:23;26.20;48.50
73576;DHT22;61859;49.204;8.140;2022-07-29T08:48:49;26.10;49.90
73576;DHT22;61859;49.204;8.140;2022-07-29T08:51:17;26.30;49.70
73576;DHT22;61859;49.204;8.140;2022-07-29T08:53:44;26.50;49.80
73576;DHT22;61859;49.204;8.140;2022-07-29T08:56:14;26.80;48.30
73576;DHT22;61859;49.204;8.140;2022-07-29T08:58:42;27.10;48.10
73576;DHT22;61859;49.204;8.140;2022-07-29T09:01:08;27.10;49.30
73576;DHT22;61859;49.204;8.140;2022-07-29T09:03:36;27.20;48.30
73576;DHT22;61859;49.204;8.140;2022-07-29T09:06:03;27.20;47.10
73576;DHT22;61859;49.204;8.140;2022-07-29T09:08:30;27.20;47.00
73576;DHT22;61859;49.204;8.140;2022-07-29T09:10:57;27.10;48.00
73576;DHT22;61859;49.204;8.140;2022-07-29T09:13:23;27.10;46.60
73576;DHT22;61859;49.204;8.140;2022-07-29T09:15:49;27.20;46.90
73576;DHT22;61859;49.204;8.140;2022-07-29T09:18:34;27.60;46.80
73576;DHT22;61859;49.204;8.140;2022-07-29T09:21:00;27.60;45.80
73576;DHT22;61859;49.204;8.140;2022-07-29T09:26:28;27.80;45.10
73576;DHT22;61859;49.204;8.140;2022-07-29T09:28:54;28.20;45.90
73576;DHT22;61859;49.204;8.140;2022-07-29T09:31:36;28.30;45.80
73576;DHT22;61859;49.204;8.140;2022-07-29T09:34:03;28.10;45.80
73576;DHT22;61859;49.204;8.140;2022-07-29T09:36:28;28.00;45.40
73576;DHT22;61859;49.204;8.140;2022-07-29T09:39:01;27.90;44.50
73576;DHT22;61859;49.204;8.140;2022-07-29T09:41:28;28.30;44.90
73576;DHT22;61859;49.204;8.140;2022-07-29T09:43:56;28.90;42.90
73576;DHT22;61859;49.204;8.140;2022-07-29T09:46:21;29.60;41.80
73576;DHT22;61859;49.204;8.140;2022-07-29T09:49:14;30.00;41.60
73576;DHT22;61859;49.204;8.140;2022-07-29T09:51:40;30.10;40.80
73576;DHT22;61859;49.204;8.140;2022-07-29T09:54:26;30.20;41.20
73576;DHT22;61859;49.204;8.140;2022-07-29T09:56:53;30.10;41.40
73576;DHT22;61859;49.204;8.140;2022-07-29T09:59:20;30.00;42.20
73576;DHT22;61859;49.204;8.140;2022-07-29T10:01:49;30.10;41.90
73576;DHT22;61859;49.204;8.140;2022-07-29T10:04:15;30.20;42.80
73576;DHT22;61859;49.204;8.140;2022-07-29T10:07:01;29.90;40.90
73576;DHT22;61859;49.204;8.140;2022-07-29T10:09:27;30.10;42.40
73576;DHT22;61859;49.204;8.140;2022-07-29T10:12:12;30.60;41.60
73576;DHT22;61859;49.204;8.140;2022-07-29T10:14:42;30.70;41.00
73576;DHT22;61859;49.204;8.140;2022-07-29T10:17:08;30.90;40.50
73576;DHT22;61859;49.204;8.140;2022-07-29T10:19:36;30.80;39.70
73576;DHT22;61859;49.204;8.140;2022-07-29T10:22:04;30.60;41.70
73576;DHT22;61859;49.204;8.140;2022-07-29T10:24:31;30.60;40.10
73576;DHT22;61859;49.204;8.140;2022-07-29T10:26:58;30.60;41.10
73576;DHT22;61859;49.204;8.140;2022-07-29T10:29:24;30.60;40.10
73576;DHT22;61859;49.204;8.140;2022-07-29T10:34:51;30.50;41.70
73576;DHT22;61859;49.204;8.140;2022-07-29T10:37:34;30.30;41.40
73576;DHT22;61859;49.204;8.140;2022-07-29T10:40:11;30.60;41.90
73576;DHT22;61859;49.204;8.140;2022-07-29T10:43:08;31.30;40.20
73576;DHT22;61859;49.204;8.140;2022-07-29T10:45:40;31.90;39.50
73576;DHT22;61859;49.204;8.140;2022-07-29T10:48:06;32.40;38.00
73576;DHT22;61859;49.204;8.140;2022-07-29T10:50:54;32.50;38.10
73576;DHT22;61859;49.204;8.140;2022-07-29T10:53:21;32.40;38.10
73576;DHT22;61859;49.204;8.140;2022-07-29T10:55:47;32.40;39.00
73576;DHT22;61859;49.204;8.140;2022-07-29T10:58:20;32.50;38.00
73576;DHT22;61859;49.204;8.140;2022-07-29T11:00:48;32.70;37.10
73576;DHT22;61859;49.204;8.140;2022-07-29T11:03:42;33.00;36.50
73576;DHT22;61859;49.204;8.140;2022-07-29T11:06:09;33.20;36.20
73576;DHT22;61859;49.204;8.140;2022-07-29T11:08:35;33.40;37.30
73576;DHT22;61859;49.204;8.140;2022-07-29T11:16:14;32.10;37.60
73576;DHT22;61859;49.204;8.140;2022-07-29T11:21:41;30.90;38.30
73576;DHT22;61859;49.204;8.140;2022-07-29T11:24:15;30.90;39.00
73576;DHT22;61859;49.204;8.140;2022-07-29T11:26:42;30.90;38.70
73576;DHT22;61859;49.204;8.140;2022-07-29T11:29:20;30.90;37.80
73576;DHT22;61859;49.204;8.140;2022-07-29T11:31:49;30.90;39.00
73576;DHT22;61859;49.204;8.140;2022-07-29T11:34:28;30.90;38.70
73576;DHT22;61859;49.204;8.140;2022-07-29T11:47:28;29.50;40.10
73576;DHT22;61859;49.204;8.140;2022-07-29T11:49:56;29.20;40.00
73576;DHT22;61859;49.204;8.140;2022-07-29T11:52:23;29.10;40.70
73576;DHT22;61859;49.204;8.140;2022-07-29T11:54:50;29.00;40.00
73576;DHT22;61859;49.204;8.140;2022-07-29T11:57:17;29.10;39.50
73576;DHT22;61859;49.204;8.140;2022-07-29T11:59:45;29.40;40.40
73576;DHT22;61859;49.204;8.140;2022-07-29T12:02:11;29.80;40.10
73576;DHT22;61859;49.204;8.140;2022-07-29T12:04:56;30.20;40.10
73576;DHT22;61859;49.204;8.140;2022-07-29T12:07:33;30.80;40.00
73576;DHT22;61859;49.204;8.140;2022-07-29T12:10:00;31.70;39.00
73576;DHT22;61859;49.204;8.140;2022-07-29T12:12:25;32.30;39.90
73576;DHT22;61859;49.204;8.140;2022-07-29T12:14:51;32.80;36.70
73576;DHT22;61859;49.204;8.140;2022-07-29T12:17:31;33.30;36.40
73576;DHT22;61859;49.204;8.140;2022-07-29T12:19:59;33.50;36.00
73576;DHT22;61859;49.204;8.140;2022-07-29T12:24:55;33.60;34.80
73576;DHT22;61859;49.204;8.140;2022-07-29T12:27:25;33.50;35.70
73576;DHT22;61859;49.204;8.140;2022-07-29T12:29:58;33.50;36.50
73576;DHT22;61859;49.204;8.140;2022-07-29T12:32:45;33.30;36.10
73576;DHT22;61859;49.204;8.140;2022-07-29T12:37:40;32.90;37.20
73576;DHT22;61859;49.204;8.140;2022-07-29T12:40:07;32.60;36.50
73576;DHT22;61859;49.204;8.140;2022-07-29T12:42:34;32.30;38.10
73576;DHT22;61859;49.204;8.140;2022-07-29T12:45:00;32.00;37.10
73576;DHT22;61859;49.204;8.140;2022-07-29T12:47:27;31.80;37.50
73576;DHT22;61859;49.204;8.140;2022-07-29T12:50:12;31.60;38.20
73576;DHT22;61859;49.204;8.140;2022-07-29T12:52:39;31.10;37.50
73576;DHT22;61859;49.204;8.140;2022-07-29T12:55:05;30.70;37.60
73576;DHT22;61859;49.204;8.140;2022-07-29T12:57:31;30.60;38.00
73576;DHT22;61859;49.204;8.140;2022-07-29T13:00:09;30.40;38.40
73576;DHT22;61859;49.204;8.140;2022-07-29T13:02:37;30.30;38.80
73576;DHT22;61859;49.204;8.140;2022-07-29T13:05:04;30.10;38.50
73576;DHT22;61859;49.204;8.140;2022-07-29T13:07:31;30.10;38.00
73576;DHT22;61859;49.204;8.140;2022-07-29T13:10:11;29.90;37.70
73576;DHT22;61859;49.204;8.140;2022-07-29T13:12:37;29.60;37.40
73576;DHT22;61859;49.204;8.140;2022-07-29T13:15:16;29.50;37.30
73576;DHT22;61859;49.204;8.140;2022-07-29T13:17:42;29.40;37.20
73576;DHT22;61859;49.204;8.140;2022-07-29T13:20:10;29.20;37.30
73576;DHT22;61859;49.204;8.140;2022-07-29T13:22:38;29.10;37.30
73576;DHT22;61859;49.204;8.140;2022-07-29T13:25:04;29.10;37.30
73576;DHT22;61859;49.204;8.140;2022-07-29T13:27:33;29.20;38.60
73576;DHT22;61859;49.204;8.140;2022-07-29T13:30:01;29.30;37.70
73576;DHT22;61859;49.204;8.140;2022-07-29T13:32:28;29.40;37.90
73576;DHT22;61859;49.204;8.140;2022-07-29T13:34:58;29.70;37.50
73576;DHT22;61859;49.204;8.140;2022-07-29T13:37:25;30.10;37.90
73576;DHT22;61859;49.204;8.140;2022-07-29T13:39:51;30.60;36.50
73576;DHT22;61859;49.204;8.140;2022-07-29T13:42:17;31.30;35.90
73576;DHT22;61859;49.204;8.140;2022-07-29T13:44:43;31.80;36.30
73576;DHT22;61859;49.204;8.140;2022-07-29T13:47:09;31.90;35.20
73576;DHT22;61859;49.204;8.140;2022-07-29T13:49:35;31.40;35.50
73576;DHT22;61859;49.204;8.140;2022-07-29T13:52:01;30.90;35.50
73576;DHT22;61859;49.204;8.140;2022-07-29T13:54:27;30.60;36.00
73576;DHT22;61859;49.204;8.140;2022-07-29T13:56:53;30.50;36.10
73576;DHT22;61859;49.204;8.140;2022-07-29T13:59:18;30.60;35.80
73576;DHT22;61859;49.204;8.140;2022-07-29T14:01:44;31.10;35.60
73576;DHT22;61859;49.204;8.140;2022-07-29T14:04:10;31.30;34.70
73576;DHT22;61859;49.204;8.140;2022-07-29T14:06:36;31.40;35.40
73576;DHT22;61859;49.204;8.140;2022-07-29T14:09:03;31.40;35.20
73576;DHT22;61859;49.204;8.140;2022-07-29T14:11:32;31.10;34.40
73576;DHT22;61859;49.204;8.140;2022-07-29T14:13:57;30.90;35.10
73576;DHT22;61859;49.204;8.140;2022-07-29T14:16:23;31.00;34.90
73576;DHT22;61859;49.204;8.140;2022-07-29T14:18:48;30.80;34.70
73576;DHT22;61859;49.204;8.140;2022-07-29T14:21:14;30.80;35.80
73576;DHT22;61859;49.204;8.140;2022-07-29T14:23:39;31.00;35.10
73576;DHT22;61859;49.204;8.140;2022-07-29T14:26:06;30.90;34.60
73576;DHT22;61859;49.204;8.140;2022-07-29T14:28:32;31.10;35.40
73576;DHT22;61859;49.204;8.140;2022-07-29T14:30:57;31.30;35.30
73576;DHT22;61859;49.204;8.140;2022-07-29T14:33:23;31.40;35.10
73576;DHT22;61859;49.204;8.140;2022-07-29T14:35:49;31.60;34.70
73576;DHT22;61859;49.204;8.140;2022-07-29T14:38:14;31.70;34.20
73576;DHT22;61859;49.204;8.140;2022-07-29T14:40:40;31.60;33.90
73576;DHT22;61859;49.204;8.140;2022-07-29T14:43:05;31.70;34.30
73576;DHT22;61859;49.204;8.140;2022-07-29T14:45:31;31.90;33.80
73576;DHT22;61859;49.204;8.140;2022-07-29T14:47:56;31.80;33.40
73576;DHT22;61859;49.204;8.140;2022-07-29T14:50:22;31.80;33.90
73576;DHT22;61859;49.204;8.140;2022-07-29T14:52:48;32.00;34.30
73576;DHT22;61859;49.204;8.140;2022-07-29T14:55:13;32.50;33.80
73576;DHT22;61859;49.204;8.140;2022-07-29T14:57:39;33.30;32.30
73576;DHT22;61859;49.204;8.140;2022-07-29T15:00:06;33.90;32.20
73576;DHT22;61859;49.204;8.140;2022-07-29T15:02:33;34.50;31.60
73576;DHT22;61859;49.204;8.140;2022-07-29T15:04:58;34.50;31.60
73576;DHT22;61859;49.204;8.140;2022-07-29T15:07:24;34.50;31.10
73576;DHT22;61859;49.204;8.140;2022-07-29T15:09:49;34.50;31.90
73576;DHT22;61859;49.204;8.140;2022-07-29T15:12:15;34.80;31.40
73576;DHT22;61859;49.204;8.140;2022-07-29T15:14:42;34.70;31.40
73576;DHT22;61859;49.204;8.140;2022-07-29T15:17:07;34.30;31.20
73576;DHT22;61859;49.204;8.140;2022-07-29T15:19:33;33.90;31.30
73576;DHT22;61859;49.204;8.140;2022-07-29T15:21:59;34.00;32.20
73576;DHT22;61859;49.204;8.140;2022-07-29T15:24:24;33.90;30.90
73576;DHT22;61859;49.204;8.140;2022-07-29T15:26:50;33.90;31.40
73576;DHT22;61859;49.204;8.140;2022-07-29T15:29:15;34.10;31.40
73576;DHT22;61859;49.204;8.140;2022-07-29T15:31:41;34.10;30.50
73576;DHT22;61859;49.204;8.140;2022-07-29T15:34:07;34.40;31.80
73576;DHT22;61859;49.204;8.140;2022-07-29T15:36:33;34.60;30.60
73576;DHT22;61859;49.204;8.140;2022-07-29T15:38:58;34.50;31.60
73576;DHT22;61859;49.204;8.140;2022-07-29T15:41:24;34.70;30.40
73576;DHT22;61859;49.204;8.140;2022-07-29T15:43:49;34.60;32.20
73576;DHT22;61859;49.204;8.140;2022-07-29T15:46:17;34.60;31.20
73576;DHT22;61859;49.204;8.140;2022-07-29T15:49:03;34.80;30.90
73576;DHT22;61859;49.204;8.140;2022-07-29T15:51:29;34.90;30.20
73576;DHT22;61859;49.204;8.140;2022-07-29T15:53:54;34.70;30.60
73576;DHT22;61859;49.204;8.140;2022-07-29T15:56:21;34.70;29.90
73576;DHT22;61859;49.204;8.140;2022-07-29T15:58:46;34.60;29.80
73576;DHT22;61859;49.204;8.140;2022-07-29T16:01:12;34.30;29.10
73576;DHT22;61859;49.204;8.140;2022-07-29T16:03:37;34.40;28.50
73576;DHT22;61859;49.204;8.140;2022-07-29T16:06:03;34.50;29.00
73576;DHT22;61859;49.204;8.140;2022-07-29T16:08:29;34.40;27.30
73576;DHT22;61859;49.204;8.140;2022-07-29T16:10:54;34.30;27.70